sensor_id;sensor_type;location;lat;lon;timestamp;temperature;humidity
64689;DHT22;62504;46.070;14.492;2023-03-14T00:00:34;12.30;99.90
64689;DHT22;62504;46.070;14.492;2023-03-14T00:03:00;12.30;99.90
64689;DHT22;62504;46.070;14.492;2023-03-14T00:05:26;12.20;99.90
64689;DHT22;62504;46.070;14.492;2023-03-14T00:07:52;12.30;99.90
64689;DHT22;62504;46.070;14.492;2023-03-14T00:10:18;12.30;99.90
64689;DHT22;62504;46.070;14.492;2023-03-14T00:12:44;12.30;99.90
64689;DHT22;62504;46.070;14.492;2023-03-14T00:15:10;12.30;99.90
64689;DHT22;62504;46.070;14.492;2023-03-14T00:17:37;12.30;99.90
64689;DHT22;62504;46.070;14.492;2023-03-14T00:20:05;12.20;99.90
64689;DHT22;62504;46.070;14.492;2023-03-14T00:22:36;12.20;99.90
64689;DHT22;62504;46.070;14.492;2023-03-14T00:25:02;12.20;99.90
64689;DHT22;62504;46.070;14.492;2023-03-14T00:27:28;12.20;99.90
64689;DHT22;62504;46.070;14.492;2023-03-14T00:29:54;12.20;99.90
64689;DHT22;62504;46.070;14.492;2023-03-14T00:32:19;12.20;99.90
64689;DHT22;62504;46.070;14.492;2023-03-14T00:34:45;12.20;99.90
64689;DHT22;62504;46.070;14.492;2023-03-14T00:37:10;12.20;99.90
64689;DHT22;62504;46.070;14.492;2023-03-14T00:39:36;12.20;99.90
64689;DHT22;62504;46.070;14.492;2023-03-14T00:42:02;12.20;99.90
64689;DHT22;62504;46.070;14.492;2023-03-14T00:44:27;12.20;99.90
64689;DHT22;62504;46.070;14.492;2023-03-14T00:46:53;12.20;99.90
64689;DHT22;62504;46.070;14.492;2023-03-14T00:49:19;12.10;99.90
64689;DHT22;62504;46.070;14.492;2023-03-14T00:51:44;12.10;99.90
64689;DHT22;62504;46.070;14.492;2023-03-14T00:54:10;12.10;99.90
64689;DHT22;62504;46.070;14.492;2023-03-14T00:56:36;12.10;99.90
64689;DHT22;62504;46.070;14.492;2023-03-14T00:59:01;12.10;99.90
64689;DHT22;62504;46.070;14.492;2023-03-14T01:01:27;12.10;99.90
64689;DHT22;62504;46.070;14.492;2023-03-14T01:03:55;12.10;99.90
64689;DHT22;62504;46.070;14.492;2023-03-14T01:06:26;12.10;99.90
64689;DHT22;62504;46.070;14.492;2023-03-14T01:08:53;12.10;99.90
64689;DHT22;62504;46.070;14.492;2023-03-14T01:11:21;12.10;99.90
64689;DHT22;62504;46.070;14.492;2023-03-14T01:13:47;12.00;99.90
64689;DHT22;62504;46.070;14.492;2023-03-14T01:16:14;12.00;99.90
64689;DHT22;62504;46.070;14.492;2023-03-14T01:18:41;11.90;99.90
64689;DHT22;62504;46.070;14.492;2023-03-14T01:21:18;11.90;99.90
64689;DHT22;62504;46.070;14.492;2023-03-14T01:23:44;11.90;99.90
64689;DHT22;62504;46.070;14.492;2023-03-14T01:26:12;11.90;99.90
64689;DHT22;62504;46.070;14.492;2023-03-14T01:28:38;11.90;99.90
64689;DHT22;62504;46.070;14.492;2023-03-14T01:31:06;12.00;99.90
64689;DHT22;62504;46.070;14.492;2023-03-14T01:33:32;11.90;99.90
64689;DHT22;62504;46.070;14.492;2023-03-14T01:35:58;11.90;99.90
64689;DHT22;62504;46.070;14.492;2023-03-14T01:38:24;12.00;99.90
64689;DHT22;62504;46.070;14.492;2023-03-14T01:40:49;12.00;99.90
64689;DHT22;62504;46.070;14.492;2023-03-14T01:43:17;12.00;99.90
64689;DHT22;62504;46.070;14.492;2023-03-14T01:48:31;12.10;99.90
64689;DHT22;62504;46.070;14.492;2023-03-14T01:50:58;12.00;99.90
64689;DHT22;62504;46.070;14.492;2023-03-14T01:53:25;12.00;99.90
64689;DHT22;62504;46.070;14.492;2023-03-14T01:55:52;12.00;99.90
64689;DHT22;62504;46.070;14.492;2023-03-14T01:58:23;12.00;99.90
64689;DHT22;62504;46.070;14.492;2023-03-14T02:00:51;12.10;99.90
64689;DHT22;62504;46.070;14.492;2023-03-14T02:03:17;12.10;99.90
64689;DHT22;62504;46.070;14.492;2023-03-14T02:05:46;12.00;99.90
64689;DHT22;62504;46.070;14.492;2023-03-14T02:08:18;12.00;99.90
64689;DHT22;62504;46.070;14.492;2023-03-14T02:10:46;12.00;99.90
64689;DHT22;62504;46.070;14.492;2023-03-14T02:13:13;12.00;99.90
64689;DHT22;62504;46.070;14.492;2023-03-14T02:15:39;12.00;99.90
64689;DHT22;62504;46.070;14.492;2023-03-14T02:18:06;12.00;99.90
64689;DHT22;62504;46.070;14.492;2023-03-14T02:26:11;12.00;99.90
64689;DHT22;62504;46.070;14.492;2023-03-14T02:28:40;12.00;99.90
64689;DHT22;62504;46.070;14.492;2023-03-14T02:31:06;12.00;99.90
64689;DHT22;62504;46.070;14.492;2023-03-14T02:33:35;11.90;99.90
64689;DHT22;62504;46.070;14.492;2023-03-14T02:36:05;12.00;99.90
64689;DHT22;62504;46.070;14.492;2023-03-14T02:41:13;12.00;99.90
64689;DHT22;62504;46.070;14.492;2023-03-14T02:43:39;12.00;99.90
64689;DHT22;62504;46.070;14.492;2023-03-14T02:46:07;12.00;99.90
64689;DHT22;62504;46.070;14.492;2023-03-14T02:48:44;12.00;99.90
64689;DHT22;62504;46.070;14.492;2023-03-14T02:51:12;12.00;99.90
64689;DHT22;62504;46.070;14.492;2023-03-14T02:53:38;12.10;99.90
64689;DHT22;62504;46.070;14.492;2023-03-14T02:56:04;12.10;99.90
64689;DHT22;62504;46.070;14.492;2023-03-14T02:58:30;12.10;99.90
64689;DHT22;62504;46.070;14.492;2023-03-14T03:00:56;12.10;99.90
64689;DHT22;62504;46.070;14.492;2023-03-14T03:03:22;12.10;99.90
64689;DHT22;62504;46.070;14.492;2023-03-14T03:05:52;12.00;99.90
64689;DHT22;62504;46.070;14.492;2023-03-14T03:08:20;12.00;99.90
64689;DHT22;62504;46.070;14.492;2023-03-14T03:10:46;12.00;99.90
64689;DHT22;62504;46.070;14.492;2023-03-14T03:13:11;12.10;99.90
64689;DHT22;62504;46.070;14.492;2023-03-14T03:15:37;12.10;99.90
64689;DHT22;62504;46.070;14.492;2023-03-14T03:18:03;12.00;99.90
64689;DHT22;62504;46.070;14.492;2023-03-14T03:20:29;12.10;99.90
64689;DHT22;62504;46.070;14.492;2023-03-14T03:22:55;12.10;99.90
64689;DHT22;62504;46.070;14.492;2023-03-14T03:25:21;12.10;99.90
64689;DHT22;62504;46.070;14.492;2023-03-14T03:27:46;12.20;99.90
64689;DHT22;62504;46.070;14.492;2023-03-14T03:30:12;12.20;99.90
64689;DHT22;62504;46.070;14.492;2023-03-14T03:32:38;12.20;99.90
64689;DHT22;62504;46.070;14.492;2023-03-14T03:35:04;12.20;99.90
64689;DHT22;62504;46.070;14.492;2023-03-14T03:37:32;12.30;99.90
64689;DHT22;62504;46.070;14.492;2023-03-14T03:39:58;12.30;99.90
64689;DHT22;62504;46.070;14.492;2023-03-14T03:42:23;12.30;99.90
64689;DHT22;62504;46.070;14.492;2023-03-14T03:44:49;12.30;99.90
64689;DHT22;62504;46.070;14.492;2023-03-14T03:47:15;12.30;99.90
64689;DHT22;62504;46.070;14.492;2023-03-14T03:49:41;12.40;99.90
64689;DHT22;62504;46.070;14.492;2023-03-14T03:52:07;12.40;99.90
64689;DHT22;62504;46.070;14.492;2023-03-14T03:54:32;12.40;99.90
64689;DHT22;62504;46.070;14.492;2023-03-14T03:56:58;12.50;99.90
64689;DHT22;62504;46.070;14.492;2023-03-14T03:59:24;12.50;99.90
64689;DHT22;62504;46.070;14.492;2023-03-14T04:01:49;12.60;99.90
64689;DHT22;62504;46.070;14.492;2023-03-14T04:04:15;12.60;99.90
64689;DHT22;62504;46.070;14.492;2023-03-14T04:06:41;12.60;99.90
64689;DHT22;62504;46.070;14.492;2023-03-14T04:09:08;12.60;99.90
64689;DHT22;62504;46.070;14.492;2023-03-14T04:11:34;12.60;99.90
64689;DHT22;62504;46.070;14.492;2023-03-14T04:14:00;12.60;99.90
64689;DHT22;62504;46.070;14.492;2023-03-14T04:16:26;12.60;99.90
64689;DHT22;62504;46.070;14.492;2023-03-14T04:18:52;12.60;99.90
64689;DHT22;62504;46.070;14.492;2023-03-14T04:21:18;12.50;99.90
64689;DHT22;62504;46.070;14.492;2023-03-14T04:23:44;12.60;99.90
64689;DHT22;62504;46.070;14.492;2023-03-14T04:26:09;12.50;99.90
64689;DHT22;62504;46.070;14.492;2023-03-14T04:28:35;12.60;99.90
64689;DHT22;62504;46.070;14.492;2023-03-14T04:31:13;12.60;99.90
64689;DHT22;62504;46.070;14.492;2023-03-14T04:33:39;12.50;99.90
64689;DHT22;62504;46.070;14.492;2023-03-14T04:36:06;12.60;99.90
64689;DHT22;62504;46.070;14.492;2023-03-14T04:38:32;12.60;99.90
64689;DHT22;62504;46.070;14.492;2023-03-14T04:40:59;12.50;99.90
64689;DHT22;62504;46.070;14.492;2023-03-14T04:43:25;12.50;99.90
64689;DHT22;62504;46.070;14.492;2023-03-14T04:45:55;12.50;99.90
64689;DHT22;62504;46.070;14.492;2023-03-14T04:48:21;12.50;99.90
64689;DHT22;62504;46.070;14.492;2023-03-14T04:50:47;12.50;99.90
64689;DHT22;62504;46.070;14.492;2023-03-14T04:53:14;12.60;99.90
64689;DHT22;62504;46.070;14.492;2023-03-14T04:55:39;12.50;99.90
64689;DHT22;62504;46.070;14.492;2023-03-14T04:58:05;12.50;99.90
64689;DHT22;62504;46.070;14.492;2023-03-14T05:00:31;12.50;99.90
64689;DHT22;62504;46.070;14.492;2023-03-14T05:02:57;12.50;99.90
64689;DHT22;62504;46.070;14.492;2023-03-14T05:05:22;12.50;99.90
64689;DHT22;62504;46.070;14.492;2023-03-14T05:07:48;12.50;99.90
64689;DHT22;62504;46.070;14.492;2023-03-14T05:10:14;12.50;99.90
64689;DHT22;62504;46.070;14.492;2023-03-14T05:12:39;12.50;99.90
64689;DHT22;62504;46.070;14.492;2023-03-14T05:15:05;12.60;99.90
64689;DHT22;62504;46.070;14.492;2023-03-14T05:17:34;12.50;99.90
64689;DHT22;62504;46.070;14.492;2023-03-14T05:20:00;12.50;99.90
64689;DHT22;62504;46.070;14.492;2023-03-14T05:22:26;12.50;99.90
64689;DHT22;62504;46.070;14.492;2023-03-14T05:24:52;12.50;99.90
64689;DHT22;62504;46.070;14.492;2023-03-14T05:27:22;12.60;99.90
64689;DHT22;62504;46.070;14.492;2023-03-14T05:29:47;12.50;99.90
64689;DHT22;62504;46.070;14.492;2023-03-14T05:32:13;12.50;99.90
64689;DHT22;62504;46.070;14.492;2023-03-14T05:34:39;12.50;99.90
64689;DHT22;62504;46.070;14.492;2023-03-14T05:37:04;12.50;99.90
64689;DHT22;62504;46.070;14.492;2023-03-14T05:39:30;12.60;99.90
64689;DHT22;62504;46.070;14.492;2023-03-14T05:41:56;12.60;99.90
64689;DHT22;62504;46.070;14.492;2023-03-14T05:44:22;12.50;99.90
64689;DHT22;62504;46.070;14.492;2023-03-14T05:46:47;12.60;99.90
64689;DHT22;62504;46.070;14.492;2023-03-14T05:49:13;12.60;99.90
64689;DHT22;62504;46.070;14.492;2023-03-14T05:51:39;12.60;99.90
64689;DHT22;62504;46.070;14.492;2023-03-14T05:54:04;12.70;99.90
64689;DHT22;62504;46.070;14.492;2023-03-14T05:56:30;12.70;99.90
64689;DHT22;62504;46.070;14.492;2023-03-14T05:58:56;12.70;99.90
64689;DHT22;62504;46.070;14.492;2023-03-14T06:01:21;12.70;99.90
64689;DHT22;62504;46.070;14.492;2023-03-14T06:03:47;12.70;99.90
64689;DHT22;62504;46.070;14.492;2023-03-14T06:06:13;12.60;99.90
64689;DHT22;62504;46.070;14.492;2023-03-14T06:08:38;12.70;99.90
64689;DHT22;62504;46.070;14.492;2023-03-14T06:11:04;12.70;99.90
64689;DHT22;62504;46.070;14.492;2023-03-14T06:13:30;12.70;99.90
64689;DHT22;62504;46.070;14.492;2023-03-14T06:15:56;12.80;99.90
64689;DHT22;62504;46.070;14.492;2023-03-14T06:18:22;12.90;99.90
64689;DHT22;62504;46.070;14.492;2023-03-14T06:20:47;12.90;99.90
64689;DHT22;62504;46.070;14.492;2023-03-14T06:23:13;13.00;99.90
64689;DHT22;62504;46.070;14.492;2023-03-14T06:25:39;13.00;99.90
64689;DHT22;62504;46.070;14.492;2023-03-14T06:28:04;13.00;99.90
64689;DHT22;62504;46.070;14.492;2023-03-14T06:30:30;13.00;99.90
64689;DHT22;62504;46.070;14.492;2023-03-14T06:32:56;13.00;99.90
64689;DHT22;62504;46.070;14.492;2023-03-14T06:35:22;13.00;99.90
64689;DHT22;62504;46.070;14.492;2023-03-14T06:37:48;13.10;99.90
64689;DHT22;62504;46.070;14.492;2023-03-14T06:40:14;13.10;99.90
64689;DHT22;62504;46.070;14.492;2023-03-14T06:42:45;13.10;99.90
64689;DHT22;62504;46.070;14.492;2023-03-14T06:45:12;13.20;99.90
64689;DHT22;62504;46.070;14.492;2023-03-14T06:47:38;13.20;99.90
64689;DHT22;62504;46.070;14.492;2023-03-14T06:50:05;13.20;99.90
64689;DHT22;62504;46.070;14.492;2023-03-14T06:52:31;13.20;99.90
64689;DHT22;62504;46.070;14.492;2023-03-14T06:54:57;13.30;99.90
64689;DHT22;62504;46.070;14.492;2023-03-14T06:57:22;13.30;99.90
64689;DHT22;62504;46.070;14.492;2023-03-14T06:59:48;13.40;99.90
64689;DHT22;62504;46.070;14.492;2023-03-14T07:02:14;13.50;99.90
64689;DHT22;62504;46.070;14.492;2023-03-14T07:04:39;13.50;99.90
64689;DHT22;62504;46.070;14.492;2023-03-14T07:07:05;13.50;99.90
64689;DHT22;62504;46.070;14.492;2023-03-14T07:09:32;13.50;99.90
64689;DHT22;62504;46.070;14.492;2023-03-14T07:11:58;13.50;99.90
64689;DHT22;62504;46.070;14.492;2023-03-14T07:14:23;13.40;99.90
64689;DHT22;62504;46.070;14.492;2023-03-14T07:16:49;13.30;99.90
64689;DHT22;62504;46.070;14.492;2023-03-14T07:19:15;13.30;99.90
64689;DHT22;62504;46.070;14.492;2023-03-14T07:21:40;13.20;99.90
64689;DHT22;62504;46.070;14.492;2023-03-14T07:24:06;13.20;99.90
64689;DHT22;62504;46.070;14.492;2023-03-14T07:26:32;13.20;99.90
64689;DHT22;62504;46.070;14.492;2023-03-14T07:28:58;13.20;99.90
64689;DHT22;62504;46.070;14.492;2023-03-14T07:31:23;13.00;99.90
64689;DHT22;62504;46.070;14.492;2023-03-14T07:33:49;13.00;99.90
64689;DHT22;62504;46.070;14.492;2023-03-14T07:36:15;13.10;99.90
64689;DHT22;62504;46.070;14.492;2023-03-14T07:38:41;13.30;99.90
64689;DHT22;62504;46.070;14.492;2023-03-14T07:41:07;14.00;99.90
64689;DHT22;62504;46.070;14.492;2023-03-14T07:43:33;14.70;99.90
64689;DHT22;62504;46.070;14.492;2023-03-14T07:45:59;14.40;99.90
64689;DHT22;62504;46.070;14.492;2023-03-14T07:48:25;14.10;99.90
64689;DHT22;62504;46.070;14.492;2023-03-14T07:50:53;14.30;99.90
64689;DHT22;62504;46.070;14.492;2023-03-14T07:53:19;14.20;99.90
64689;DHT22;62504;46.070;14.492;2023-03-14T07:55:45;14.00;99.90
64689;DHT22;62504;46.070;14.492;2023-03-14T07:58:11;13.90;99.90
64689;DHT22;62504;46.070;14.492;2023-03-14T08:00:37;13.80;99.90
64689;DHT22;62504;46.070;14.492;2023-03-14T08:03:03;13.70;99.90
64689;DHT22;62504;46.070;14.492;2023-03-14T08:05:29;13.60;99.90
64689;DHT22;62504;46.070;14.492;2023-03-14T08:07:54;13.60;99.90
64689;DHT22;62504;46.070;14.492;2023-03-14T08:10:20;13.40;99.90
64689;DHT22;62504;46.070;14.492;2023-03-14T08:12:46;13.40;99.90
64689;DHT22;62504;46.070;14.492;2023-03-14T08:15:12;13.40;99.90
64689;DHT22;62504;46.070;14.492;2023-03-14T08:17:37;13.40;99.90
64689;DHT22;62504;46.070;14.492;2023-03-14T08:20:04;13.40;99.90
64689;DHT22;62504;46.070;14.492;2023-03-14T08:22:34;13.40;99.90
64689;DHT22;62504;46.070;14.492;2023-03-14T08:24:59;13.40;99.90
64689;DHT22;62504;46.070;14.492;2023-03-14T08:27:25;13.30;99.90
64689;DHT22;62504;46.070;14.492;2023-03-14T08:29:51;13.30;99.90
64689;DHT22;62504;46.070;14.492;2023-03-14T08:32:16;13.40;99.90
64689;DHT22;62504;46.070;14.492;2023-03-14T08:34:43;13.40;99.90
64689;DHT22;62504;46.070;14.492;2023-03-14T08:37:08;13.50;99.90
64689;DHT22;62504;46.070;14.492;2023-03-14T08:39:34;13.60;99.90
64689;DHT22;62504;46.070;14.492;2023-03-14T08:42:00;13.60;99.90
64689;DHT22;62504;46.070;14.492;2023-03-14T08:44:25;13.70;99.90
64689;DHT22;62504;46.070;14.492;2023-03-14T08:46:51;13.90;99.90
64689;DHT22;62504;46.070;14.492;2023-03-14T08:49:16;14.50;99.90
64689;DHT22;62504;46.070;14.492;2023-03-14T08:51:42;15.30;99.90
64689;DHT22;62504;46.070;14.492;2023-03-14T08:54:10;15.40;99.90
64689;DHT22;62504;46.070;14.492;2023-03-14T08:56:36;15.10;99.90
64689;DHT22;62504;46.070;14.492;2023-03-14T08:59:03;15.10;99.90
64689;DHT22;62504;46.070;14.492;2023-03-14T09:01:29;14.80;99.90
64689;DHT22;62504;46.070;14.492;2023-03-14T09:03:55;14.70;99.90
64689;DHT22;62504;46.070;14.492;2023-03-14T09:06:21;14.60;99.90
64689;DHT22;62504;46.070;14.492;2023-03-14T09:08:47;14.60;99.90
64689;DHT22;62504;46.070;14.492;2023-03-14T09:11:13;14.70;99.90
64689;DHT22;62504;46.070;14.492;2023-03-14T09:13:39;14.70;99.90
64689;DHT22;62504;46.070;14.492;2023-03-14T09:16:05;14.60;99.90
64689;DHT22;62504;46.070;14.492;2023-03-14T09:18:31;14.60;99.90
64689;DHT22;62504;46.070;14.492;2023-03-14T09:20:57;14.50;99.90
64689;DHT22;62504;46.070;14.492;2023-03-14T09:23:23;14.20;99.90
64689;DHT22;62504;46.070;14.492;2023-03-14T09:25:49;14.10;99.90
64689;DHT22;62504;46.070;14.492;2023-03-14T09:28:14;14.10;99.90
64689;DHT22;62504;46.070;14.492;2023-03-14T09:30:40;14.00;99.90
64689;DHT22;62504;46.070;14.492;2023-03-14T09:33:06;14.00;99.90
64689;DHT22;62504;46.070;14.492;2023-03-14T09:35:33;14.00;99.90
64689;DHT22;62504;46.070;14.492;2023-03-14T09:37:59;13.90;99.90
64689;DHT22;62504;46.070;14.492;2023-03-14T09:40:32;13.90;99.90
64689;DHT22;62504;46.070;14.492;2023-03-14T09:42:59;13.90;99.90
64689;DHT22;62504;46.070;14.492;2023-03-14T09:45:32;13.90;99.90
64689;DHT22;62504;46.070;14.492;2023-03-14T09:47:59;13.80;99.90
64689;DHT22;62504;46.070;14.492;2023-03-14T09:50:49;13.80;99.90
64689;DHT22;62504;46.070;14.492;2023-03-14T09:53:25;13.80;99.90
64689;DHT22;62504;46.070;14.492;2023-03-14T09:55:54;13.70;99.90
64689;DHT22;62504;46.070;14.492;2023-03-14T09:58:22;13.70;99.90
64689;DHT22;62504;46.070;14.492;2023-03-14T10:00:50;13.60;99.90
64689;DHT22;62504;46.070;14.492;2023-03-14T10:03:35;13.50;99.90
64689;DHT22;62504;46.070;14.492;2023-03-14T10:06:01;13.40;99.90
64689;DHT22;62504;46.070;14.492;2023-03-14T10:08:27;13.40;99.90
64689;DHT22;62504;46.070;14.492;2023-03-14T10:10:53;13.30;99.90
64689;DHT22;62504;46.070;14.492;2023-03-14T10:16:02;13.20;99.90
64689;DHT22;62504;46.070;14.492;2023-03-14T10:18:30;13.10;99.90
64689;DHT22;62504;46.070;14.492;2023-03-14T10:23:33;13.10;99.90
64689;DHT22;62504;46.070;14.492;2023-03-14T10:26:17;13.10;99.90
64689;DHT22;62504;46.070;14.492;2023-03-14T10:28:49;13.10;99.90
64689;DHT22;62504;46.070;14.492;2023-03-14T10:31:17;13.10;99.90
64689;DHT22;62504;46.070;14.492;2023-03-14T10:34:01;13.20;99.90
64689;DHT22;62504;46.070;14.492;2023-03-14T10:36:31;13.20;99.90
64689;DHT22;62504;46.070;14.492;2023-03-14T10:39:18;13.20;99.90
64689;DHT22;62504;46.070;14.492;2023-03-14T10:41:53;13.30;99.90
64689;DHT22;62504;46.070;14.492;2023-03-14T10:44:24;13.60;99.90
64689;DHT22;62504;46.070;14.492;2023-03-14T10:47:00;13.90;99.90
64689;DHT22;62504;46.070;14.492;2023-03-14T10:49:34;14.00;99.90
64689;DHT22;62504;46.070;14.492;2023-03-14T10:52:24;14.00;99.90
64689;DHT22;62504;46.070;14.492;2023-03-14T10:55:03;14.10;99.90
64689;DHT22;62504;46.070;14.492;2023-03-14T10:57:29;13.70;99.90
64689;DHT22;62504;46.070;14.492;2023-03-14T10:59:56;13.60;99.90
64689;DHT22;62504;46.070;14.492;2023-03-14T11:05:14;13.50;99.90
64689;DHT22;62504;46.070;14.492;2023-03-14T11:07:43;13.40;99.90
64689;DHT22;62504;46.070;14.492;2023-03-14T11:10:26;13.60;99.90
64689;DHT22;62504;46.070;14.492;2023-03-14T11:13:31;13.60;99.90
64689;DHT22;62504;46.070;14.492;2023-03-14T11:18:54;13.50;99.90
64689;DHT22;62504;46.070;14.492;2023-03-14T11:22:44;13.50;99.90
64689;DHT22;62504;46.070;14.492;2023-03-14T11:27:25;13.50;99.90
64689;DHT22;62504;46.070;14.492;2023-03-14T11:30:05;13.30;99.90
64689;DHT22;62504;46.070;14.492;2023-03-14T11:32:46;13.00;99.90
64689;DHT22;62504;46.070;14.492;2023-03-14T11:35:45;13.00;99.90
64689;DHT22;62504;46.070;14.492;2023-03-14T11:38:43;12.90;99.90
64689;DHT22;62504;46.070;14.492;2023-03-14T11:43:55;12.90;99.90
64689;DHT22;62504;46.070;14.492;2023-03-14T11:46:23;12.80;99.90
64689;DHT22;62504;46.070;14.492;2023-03-14T11:49:31;12.90;99.90
64689;DHT22;62504;46.070;14.492;2023-03-14T11:52:14;12.90;99.90
64689;DHT22;62504;46.070;14.492;2023-03-14T11:54:53;12.80;99.90
64689;DHT22;62504;46.070;14.492;2023-03-14T11:57:21;12.70;99.90
64689;DHT22;62504;46.070;14.492;2023-03-14T12:02:31;13.10;99.90
64689;DHT22;62504;46.070;14.492;2023-03-14T12:05:30;13.20;99.90
64689;DHT22;62504;46.070;14.492;2023-03-14T12:10:55;13.10;99.90
64689;DHT22;62504;46.070;14.492;2023-03-14T12:13:36;13.00;99.90
